Time,TemperatureF,DewpointF,PressureIn,WindDirection,WindDirectionDegrees,WindSpeedMPH,WindSpeedGustMPH,Humidity,HourlyPrecipIn,Conditions,Clouds,dailyrainin,SolarRadiationWatts/m^2,SoftwareType,DateUTC
2013-05-13 00:00:00,35.0,24.0,-100.00,SW,225,6.0,-999.0,63,-99.99,,,-99.99,0.000000,,2013-05-13 04:00:00,
2013-05-13 00:42:00,35.0,24.0,-100.00,SW,225,6.0,-999.0,63,-99.99,,,-99.99,0.000000,,2013-05-13 04:42:00,
2013-05-13 00:53:00,35.0,24.0,-100.00,SW,225,6.0,-999.0,63,-99.99,,,-99.99,0.000000,,2013-05-13 04:53:00,
2013-05-13 01:00:00,35.0,24.0,-100.00,SW,225,6.0,-999.0,65,-99.99,,,-99.99,0.000000,,2013-05-13 05:00:00,
2013-05-13 01:42:00,35.0,24.0,-100.00,SW,225,6.0,-999.0,65,-99.99,,,-99.99,0.000000,,2013-05-13 05:42:00,
2013-05-13 01:52:00,35.0,24.0,-100.00,SW,225,6.0,-999.0,65,-99.99,,,-99.99,0.000000,,2013-05-13 05:52:00,
2013-05-13 02:00:00,35.0,25.0,-100.00,SSW,202,5.0,-999.0,68,-99.99,,,-99.99,0.000000,,2013-05-13 06:00:00,
2013-05-13 02:42:00,35.0,25.0,-100.00,SSW,202,5.0,-999.0,68,-99.99,,,-99.99,0.000000,,2013-05-13 06:42:00,
2013-05-13 02:52:00,35.0,25.0,-100.00,SSW,202,5.0,-999.0,68,-99.99,,,-99.99,0.000000,,2013-05-13 06:52:00,
2013-05-13 03:00:00,35.0,26.0,-100.00,WSW,247,5.0,-999.0,69,-99.99,,,-99.99,0.000000,,2013-05-13 07:00:00,
2013-05-13 03:42:00,35.0,26.0,-100.00,WSW,247,5.0,-999.0,69,-99.99,,,-99.99,0.000000,,2013-05-13 07:42:00,
2013-05-13 03:52:00,35.0,26.0,-100.00,WSW,247,5.0,-999.0,69,-99.99,,,-99.99,0.000000,,2013-05-13 07:52:00,
2013-05-13 04:00:00,35.0,27.0,-100.00,WSW,247,4.0,-999.0,72,-99.99,,,-99.99,0.000000,,2013-05-13 08:00:00,
2013-05-13 04:42:00,35.0,27.0,-100.00,WSW,247,4.0,-999.0,72,-99.99,,,-99.99,0.000000,,2013-05-13 08:42:00,
2013-05-13 04:52:00,35.0,27.0,-100.00,WSW,247,4.0,-999.0,72,-99.99,,,-99.99,0.000000,,2013-05-13 08:52:00,
2013-05-13 05:00:00,35.0,27.0,-100.00,SW,225,5.0,-999.0,73,-99.99,,,-99.99,0.000000,,2013-05-13 09:00:00,
2013-05-13 05:42:00,35.0,27.0,-100.00,SW,225,5.0,-999.0,73,-99.99,,,-99.99,0.000000,,2013-05-13 09:42:00,
2013-05-13 05:52:00,35.0,27.0,-100.00,SW,225,5.0,-999.0,73,-99.99,,,-99.99,0.000000,,2013-05-13 09:52:00,
2013-05-13 06:00:00,35.0,27.0,-100.00,SW,225,4.0,-999.0,72,-99.99,,,-99.99,0.000000,,2013-05-13 10:00:00,
2013-05-13 06:43:00,35.0,27.0,-100.00,SW,225,4.0,-999.0,72,-99.99,,,-99.99,0.000000,,2013-05-13 10:43:00,
2013-05-13 06:53:00,35.0,27.0,-100.00,SW,225,4.0,-999.0,72,-99.99,,,-99.99,0.000000,,2013-05-13 10:53:00,
2013-05-13 07:00:00,35.0,28.0,-100.00,WSW,247,3.0,-999.0,74,-99.99,,,-99.99,10.440000,,2013-05-13 11:00:00,
2013-05-13 07:42:00,35.0,28.0,-100.00,WSW,247,3.0,-999.0,74,-99.99,,,-99.99,10.440000,,2013-05-13 11:42:00,
2013-05-13 07:52:00,35.0,28.0,-100.00,WSW,247,3.0,-999.0,74,-99.99,,,-99.99,10.440000,,2013-05-13 11:52:00,
2013-05-13 08:00:00,38.0,29.0,-100.00,West,270,3.0,-999.0,71,-99.99,,,-99.99,140.360001,,2013-05-13 12:00:00,
2013-05-13 08:42:00,38.0,29.0,-100.00,West,270,3.0,-999.0,71,-99.99,,,-99.99,140.360001,,2013-05-13 12:42:00,
2013-05-13 08:52:00,38.0,29.0,-100.00,West,270,3.0,-999.0,71,-99.99,,,-99.99,140.360001,,2013-05-13 12:52:00,
2013-05-13 09:00:00,40.0,31.0,-100.00,WNW,292,4.0,-999.0,70,-99.99,,,-99.99,332.920013,,2013-05-13 13:00:00,
2013-05-13 09:42:00,40.0,31.0,-100.00,WNW,292,4.0,-999.0,70,-99.99,,,-99.99,332.920013,,2013-05-13 13:42:00,
2013-05-13 09:52:00,40.0,31.0,-100.00,WNW,292,4.0,-999.0,70,-99.99,,,-99.99,332.920013,,2013-05-13 13:52:00,
2013-05-13 10:00:00,41.0,32.0,-100.00,WNW,292,4.0,-999.0,70,-99.99,,,-99.99,503.440002,,2013-05-13 14:00:00,
2013-05-13 10:42:00,41.0,32.0,-100.00,WNW,292,4.0,-999.0,70,-99.99,,,-99.99,503.440002,,2013-05-13 14:42:00,
2013-05-13 10:52:00,41.0,32.0,-100.00,WNW,292,4.0,-999.0,70,-99.99,,,-99.99,503.440002,,2013-05-13 14:52:00,
2013-05-13 13:00:00,43.0,32.0,-100.00,West,270,5.0,-999.0,64,-99.99,,,-99.99,896.679993,,2013-05-13 17:00:00,
2013-05-13 13:42:00,43.0,32.0,-100.00,West,270,5.0,-999.0,64,-99.99,,,-99.99,896.679993,,2013-05-13 17:42:00,
2013-05-13 13:54:00,43.0,32.0,-100.00,West,270,5.0,-999.0,64,-99.99,,,-99.99,896.679993,,2013-05-13 17:54:00,
2013-05-13 15:00:00,44.0,30.0,-100.00,WSW,247,7.0,-999.0,58,-99.99,,,-99.99,910.599976,,2013-05-13 19:00:00,
2013-05-13 15:44:00,44.0,30.0,-100.00,WSW,247,7.0,-999.0,58,-99.99,,,-99.99,910.599976,,2013-05-13 19:44:00,
2013-05-13 15:53:00,44.0,30.0,-100.00,WSW,247,7.0,-999.0,58,-99.99,,,-99.99,910.599976,,2013-05-13 19:53:00,
2013-05-13 16:00:00,44.0,25.0,-100.00,WSW,247,9.0,-999.0,46,-99.99,,,-99.99,827.080017,,2013-05-13 20:00:00,
2013-05-13 16:44:00,44.0,25.0,-100.00,WSW,247,9.0,-999.0,46,-99.99,,,-99.99,827.080017,,2013-05-13 20:44:00,
2013-05-13 16:53:00,44.0,25.0,-100.00,WSW,247,9.0,-999.0,46,-99.99,,,-99.99,827.080017,,2013-05-13 20:53:00,
2013-05-13 17:00:00,45.0,23.0,-100.00,WSW,247,9.0,-999.0,41,-99.99,,,-99.99,699.479980,,2013-05-13 21:00:00,
2013-05-13 17:44:00,45.0,23.0,-100.00,WSW,247,9.0,-999.0,41,-99.99,,,-99.99,699.479980,,2013-05-13 21:44:00,
2013-05-13 17:53:00,45.0,23.0,-100.00,WSW,247,9.0,-999.0,41,-99.99,,,-99.99,699.479980,,2013-05-13 21:53:00,
2013-05-13 18:00:00,44.0,22.0,-100.00,WSW,247,8.0,-999.0,40,-99.99,,,-99.99,490.679993,,2013-05-13 22:00:00,
2013-05-13 18:43:00,44.0,22.0,-100.00,WSW,247,8.0,-999.0,40,-99.99,,,-99.99,490.679993,,2013-05-13 22:43:00,
2013-05-13 18:52:00,44.0,22.0,-100.00,WSW,247,8.0,-999.0,40,-99.99,,,-99.99,490.679993,,2013-05-13 22:52:00,
2013-05-13 19:00:00,44.0,23.0,-100.00,WSW,247,5.0,-999.0,43,-99.99,,,-99.99,199.520004,,2013-05-13 23:00:00,
2013-05-13 19:42:00,44.0,23.0,-100.00,WSW,247,5.0,-999.0,43,-99.99,,,-99.99,199.520004,,2013-05-13 23:42:00,
2013-05-13 19:54:00,44.0,23.0,-100.00,WSW,247,5.0,-999.0,43,-99.99,,,-99.99,199.520004,,2013-05-13 23:54:00,
2013-05-13 21:00:00,43.0,28.0,-100.00,South,180,0.0,-999.0,55,-99.99,,,-99.99,17.400000,,2013-05-14 01:00:00,
2013-05-13 21:43:00,43.0,28.0,-100.00,South,180,0.0,-999.0,55,-99.99,,,-99.99,17.400000,,2013-05-14 01:43:00,
2013-05-13 21:53:00,43.0,28.0,-100.00,South,180,0.0,-999.0,55,-99.99,,,-99.99,17.400000,,2013-05-14 01:53:00,
2013-05-13 22:00:00,43.0,23.0,-100.00,South,180,1.0,-999.0,45,-99.99,,,-99.99,0.000000,,2013-05-14 02:00:00,
2013-05-13 22:42:00,43.0,23.0,-100.00,South,180,1.0,-999.0,45,-99.99,,,-99.99,0.000000,,2013-05-14 02:42:00,
2013-05-13 22:52:00,43.0,23.0,-100.00,South,180,1.0,-999.0,45,-99.99,,,-99.99,0.000000,,2013-05-14 02:52:00,
2013-05-13 23:00:00,44.0,21.0,-100.00,South,180,3.0,-999.0,39,-99.99,,,-99.99,0.000000,,2013-05-14 03:00:00,
2013-05-13 23:43:00,44.0,21.0,-100.00,South,180,3.0,-999.0,39,-99.99,,,-99.99,0.000000,,2013-05-14 03:43:00,
2013-05-13 23:53:00,44.0,21.0,-100.00,South,180,3.0,-999.0,39,-99.99,,,-99.99,0.000000,,2013-05-14 03:53:00,